Latest Weather Observations for Cape Naturaliste

IDW60801

Issued at 2:02 pm WST Wednesday 2 September 2015 (issued every 30 minutes, with the page automatically refreshed every 10 minutes)

About weather observations | Map of weather stations | Latest weather observations for WA | Other Formats
Station Details ID: 009519 Name: CAPE NATURALISTE Lat: -33.54 Lon: 115.02 Height: 109.0 m
Data from the previous 72 hours. | See also: Recent months at Cape Naturaliste
Date/Time
WST
Temp
°C
App
Temp
°C
Dew
Point
Rel
Hum
%
Delta-T
°C
Wind Press
QNH
hPa
Press
MSL
hPa
Rain
since 9 am
mm
Dir
 
Spd
km/h
Gust
km/h
Spd
kts
Gust
kts
02/02:00pm 15.4 11.0 5.0 50 4.9 NE 17 22 9 12 1025.8 1025.8 0.0
02/01:30pm 15.5 11.2 5.1 50 4.9 ENE 17 22 9 12 1026.0 1026.0 0.0
02/01:00pm 15.0 10.6 4.7 50 4.8 NE 17 22 9 12 1026.3 1026.3 0.0
02/12:30pm 14.8 10.1 5.1 52 4.6 NE 19 24 10 13 1026.7 1026.7 0.0
02/12:00pm 15.4 11.6 5.6 52 4.7 NE 15 20 8 11 1027.1 1027.1 0.0
02/11:30am 14.6 10.1 4.3 50 4.8 ENE 17 22 9 12 1027.5 1027.5 0.0
02/11:00am 14.2 9.7 4.2 51 4.6 E 17 24 9 13 1027.9 1027.9 0.0
02/10:30am 13.7 9.1 3.8 51 4.5 E 17 22 9 12 1028.0 1028.0 0.0
02/10:00am 13.5 9.3 5.7 59 3.7 E 17 20 9 11 1028.1 1028.1 0.0
02/09:30am 13.5 10.2 6.4 62 3.4 ESE 13 19 7 10 1028.2 1028.2 0.0
02/09:00am 12.8 8.9 5.5 61 3.4 E 15 22 8 12 1028.4 1028.4 0.0
02/08:30am 12.5 9.1 5.7 63 3.2 E 13 17 7 9 1028.4 1028.4 0.0
02/08:00am 11.0 8.2 5.1 67 2.7 ESE 9 13 5 7 1028.2 1028.2 0.0
02/07:30am 8.5 4.5 3.1 69 2.3 SE 13 15 7 8 1027.9 1027.9 0.0
02/07:00am 7.5 3.8 2.2 69 2.2 SE 11 15 6 8 1027.4 1027.4 0.0
02/06:30am 7.3 3.5 2.0 69 2.2 SE 11 13 6 7 1027.3 1027.3 0.0
02/06:00am 7.0 3.6 1.7 69 2.1 SE 9 11 5 6 1027.1 1027.1 0.0
02/05:30am 7.2 3.9 2.5 72 2.0 SE 9 11 5 6 1026.9 1026.9 0.0
02/05:00am 6.7 3.4 2.4 74 1.8 SE 9 9 5 5 1026.7 1026.7 0.0
02/04:30am 5.9 2.1 1.8 75 1.7 SE 11 13 6 7 1026.5 1026.5 0.0
02/04:00am 5.8 1.6 1.7 75 1.6 SE 13 15 7 8 1026.3 1026.3 0.0
02/03:30am 6.2 2.5 2.1 75 1.7 SE 11 13 6 7 1026.4 1026.4 0.0
02/03:00am 5.8 1.6 1.7 75 1.6 SE 13 13 7 7 1026.4 1026.4 0.0
02/02:30am 6.0 2.2 1.9 75 1.7 SE 11 13 6 7 1026.4 1026.4 0.0
02/02:00am 6.0 1.8 1.9 75 1.7 SE 13 13 7 7 1026.6 1026.6 0.0
02/01:30am 6.0 1.8 1.9 75 1.7 SE 13 13 7 7 1026.6 1026.6 0.0
02/01:00am 6.2 2.4 1.9 74 1.7 SE 11 13 6 7 1026.9 1026.9 0.0
02/12:30am 6.2 2.0 1.9 74 1.7 SE 13 15 7 8 1026.9 1026.9 0.0
02/12:00am 6.5 2.4 2.0 73 1.8 SE 13 17 7 9 1026.7 1026.7 0.0
 
Date/Time
WST
Temp
°C
App
Temp
°C
Dew
Point
Rel
Hum
%
Delta-T
°C
Wind Press
QNH
hPa
Press
MSL
hPa
Rain
since 9 am
mm
Dir
 
Spd
km/h
Gust
km/h
Spd
kts
Gust
kts
01/11:30pm 6.7 2.2 2.2 73 1.9 SSE 15 17 8 9 1026.8 1026.8 0.0
01/11:00pm 6.7 2.2 2.0 72 1.9 SE 15 17 8 9 1026.9 1026.9 0.0
01/10:30pm 6.9 2.4 2.0 71 2.0 SE 15 19 8 10 1027.0 1027.0 0.0
01/10:00pm 7.3 2.8 2.2 70 2.1 SSE 15 19 8 10 1026.8 1026.8 0.0
01/09:30pm 7.5 2.7 2.4 70 2.1 SSE 17 20 9 11 1026.7 1026.7 0.0
01/09:00pm 7.7 2.9 2.4 69 2.2 SSE 17 22 9 12 1026.5 1026.5 0.0
01/08:30pm 7.9 3.1 2.4 68 2.3 SSE 17 22 9 12 1026.1 1026.1 0.0
01/08:00pm 8.1 3.2 1.9 65 2.6 SSE 17 20 9 11 1025.8 1025.8 0.0
01/07:30pm 8.7 2.9 2.1 63 2.8 SSE 22 28 12 15 1025.3 1025.3 0.0
01/07:00pm 8.9 3.2 2.7 65 2.6 SSE 22 30 12 16 1025.2 1025.2 0.0
01/06:30pm 9.4 3.8 3.6 67 2.5 SSE 22 28 12 15 1025.1 1025.1 0.0
01/06:00pm 9.7 5.1 3.9 67 2.5 SSE 17 24 9 13 1024.9 1024.9 0.0
01/05:30pm 10.4 5.2 3.7 63 3.0 SSE 20 30 11 16 1024.6 1024.6 0.0
01/05:00pm 12.0 4.7 2.7 53 4.1 S 30 39 16 21 1024.3 1024.3 0.0
01/04:30pm 13.1 6.6 2.9 50 4.5 S 26 37 14 20 1023.9 1023.9 0.0
01/04:00pm 13.0 8.0 4.4 56 3.9 S 20 33 11 18 1023.9 1023.9 0.0
01/03:30pm 12.7 7.9 5.4 61 3.4 SSE 20 32 11 17 1023.7 1023.7 0.0
01/03:00pm 14.6 8.7 5.7 55 4.2 S 26 39 14 21 1023.6 1023.6 0.0
01/02:30pm 13.6 5.7 6.0 60 3.6 SSW 37 52 20 28 1023.2 1023.2 0.0
01/02:05pm 14.2 7.9 5.8 57 4.0 S 28 46 15 25 1023.2 1023.2 0.0
01/02:00pm 14.6 8.3 7.2 61 3.6 S 30 44 16 24 1023.2 1023.2 0.0
01/01:30pm 12.9 5.6 5.3 60 3.6 SSW 33 50 18 27 1023.0 1023.0 0.0
01/01:00pm 14.0 8.2 6.4 60 3.7 S 26 41 14 22 1023.5 1023.5 0.0
01/12:30pm 11.7 4.1 5.8 67 2.8 S 35 52 19 28 1023.6 1023.6 0.0
01/12:21pm 12.9 6.8 6.5 65 3.1 SSW 28 46 15 25 1023.7 1023.7 0.0
01/12:00pm 12.0 5.6 7.1 72 2.4 SSW 30 41 16 22 1023.9 1023.9 0.0
01/11:32am 13.2 6.8 5.4 59 3.7 SSW 28 48 15 26 1023.9 1023.9 0.0
01/11:30am 13.8 7.4 5.4 57 4.0 SSW 28 41 15 22 1023.9 1023.9 0.0
01/11:05am 11.3 3.6 5.2 66 2.8 S 35 54 19 29 1024.0 1024.0 0.0
01/11:00am 11.5 3.3 4.9 64 3.0 SSW 37 54 20 29 1023.9 1023.9 0.0
01/10:54am 12.3 5.9 5.2 62 3.3 SSW 28 46 15 25 1023.8 1023.8 0.0
01/10:30am 12.5 7.7 7.2 70 2.6 S 22 32 12 17 1024.0 1024.0 0.0
01/10:00am 11.2 3.9 4.4 63 3.1 SSW 32 54 17 29 1023.8 1023.8 0.0
01/09:58am 11.9 5.3 4.4 60 3.4 SSW 28 48 15 26 1023.8 1023.8 0.0
01/09:30am 12.7 6.8 5.8 63 3.3 S 26 35 14 19 1023.9 1023.9 0.0
01/09:00am 12.0 6.4 5.2 63 3.1 S 24 41 13 22 1023.5 1023.5 5.4
01/08:30am 10.2 3.8 5.0 70 2.4 S 28 41 15 22 1023.1 1023.1 5.4
01/08:06am 10.0 2.9 3.7 65 2.8 S 30 48 16 26 1022.8 1022.8 5.4
01/08:00am 10.2 2.6 3.9 65 2.8 S 33 48 18 26 1022.8 1022.8 5.4
01/07:30am 8.6 2.0 4.0 73 2.0 S 28 37 15 20 1022.4 1022.4 5.4
01/07:00am 7.7 1.0 3.9 77 1.6 S 28 37 15 20 1021.9 1021.9 5.2
01/06:30am 7.4 -0.3 3.6 77 1.6 S 33 44 18 24 1021.4 1021.4 5.2
01/06:00am 7.7 0.7 4.1 78 1.6 S 30 43 16 23 1021.1 1021.1 5.0
01/05:30am 7.3 1.4 3.9 79 1.5 SSE 24 32 13 17 1020.9 1020.9 5.0
01/05:00am 7.2 1.7 4.0 80 1.4 S 22 37 12 20 1020.7 1020.7 5.0
01/04:53am 7.4 0.4 4.0 79 1.5 S 30 48 16 26 1020.6 1020.6 5.0
01/04:30am 6.8 0.8 3.1 77 1.6 S 24 33 13 18 1020.6 1020.6 5.0
01/04:04am 9.0 1.0 3.6 69 2.4 SSW 35 61 19 33 1020.0 1019.9 4.8
01/04:00am 8.7 1.1 2.9 67 2.5 S 32 41 17 22 1020.1 1020.0 4.6
01/03:30am 7.5 1.1 3.0 73 1.9 S 26 35 14 19 1020.0 1019.9 4.6
01/03:00am 7.7 1.0 3.6 75 1.8 S 28 43 15 23 1020.0 1019.9 4.6
01/02:33am 8.2 -0.7 3.3 71 2.1 S 39 57 21 31 1020.1 1020.0 4.6
01/02:30am 8.1 -1.6 3.0 70 2.2 S 43 57 23 31 1020.1 1020.0 4.6
01/02:13am 8.9 0.2 4.1 72 2.1 SSW 39 57 21 31 1019.9 1019.8 4.6
01/02:00am 8.5 0.9 3.8 72 2.0 SSW 33 50 18 27 1020.0 1019.9 4.6
01/01:30am 7.9 0.3 2.8 70 2.2 SSW 32 50 17 27 1020.2 1020.2 4.6
01/01:00am 10.0 2.5 3.7 65 2.8 SSW 32 50 17 27 1019.8 1019.7 4.2
01/12:30am 9.8 1.0 1.5 56 3.5 SSW 37 56 20 30 1019.7 1019.6 4.2
01/12:00am 9.7 0.4 2.8 62 3.0 SSW 41 63 22 34 1019.5 1019.4 4.2
 
Date/Time
WST
Temp
°C
App
Temp
°C
Dew
Point
Rel
Hum
%
Delta-T
°C
Wind Press
QNH
hPa
Press
MSL
hPa
Rain
since 9 am
mm
Dir
 
Spd
km/h
Gust
km/h
Spd
kts
Gust
kts
31/11:31pm 10.1 0.3 2.2 58 3.4 SSW 43 61 23 33 1019.3 1019.2 4.2
31/11:30pm 10.1 0.1 2.2 58 3.4 SSW 44 61 24 33 1019.3 1019.2 4.2
31/11:00pm 8.6 0.2 3.6 71 2.2 SSW 37 57 20 31 1019.5 1019.4 4.2
31/10:30pm 10.3 1.0 2.9 60 3.2 SSW 41 59 22 32 1019.4 1019.3 4.2
31/10:00pm 10.3 0.8 4.0 65 2.8 SSW 43 63 23 34 1019.1 1019.0 4.2
31/09:31pm 10.7 2.1 2.8 58 3.4 SW 37 56 20 30 1019.0 1018.9 4.2
31/09:30pm 10.7 1.7 2.5 57 3.5 SW 39 56 21 30 1019.1 1019.0 4.2
31/09:05pm 10.5 0.8 2.6 58 3.4 SSW 43 61 23 33 1018.8 1018.8 4.2
31/09:00pm 10.4 0.5 3.0 60 3.2 SSW 44 59 24 32 1018.7 1018.7 4.2
31/08:30pm 10.2 0.6 4.6 68 2.5 SSW 44 69 24 37 1018.7 1018.7 4.2
31/08:18pm 11.1 2.2 5.2 67 2.7 SSW 41 59 22 32 1018.4 1018.4 4.0
31/08:00pm 10.9 1.7 3.7 61 3.2 SSW 41 54 22 29 1018.4 1018.4 4.0
31/07:35pm 11.1 2.0 4.1 62 3.1 SSW 41 59 22 32 1018.1 1018.1 4.0
31/07:30pm 11.1 2.0 3.9 61 3.2 SSW 41 56 22 30 1018.1 1018.1 4.0
31/07:00pm 11.2 2.5 4.2 62 3.1 SSW 39 54 21 29 1017.6 1017.6 4.0
31/06:30pm 11.0 1.6 4.7 65 2.9 SSW 43 61 23 33 1017.3 1017.3 4.0
31/06:26pm 11.4 2.9 5.1 65 2.9 SW 39 59 21 32 1017.2 1017.2 4.0
31/06:00pm 11.4 2.5 5.1 65 2.9 SSW 41 56 22 30 1017.1 1017.1 4.0
31/05:43pm 11.4 1.9 5.1 65 2.9 SSW 44 63 24 34 1017.0 1017.0 4.0
31/05:30pm 11.5 2.0 4.7 63 3.1 SW 44 61 24 33 1016.7 1016.7 4.0
31/05:00pm 12.1 3.0 5.7 65 3.0 SSW 43 65 23 35 1016.3 1016.3 4.0
31/04:48pm 12.3 4.1 6.4 67 2.8 SW 39 59 21 32 1016.2 1016.2 4.0
31/04:30pm 11.8 3.4 5.7 66 2.9 SSW 39 54 21 29 1016.4 1016.4 4.0
31/04:04pm 11.6 2.9 7.5 76 2.0 SSW 43 63 23 34 1016.0 1016.0 4.0
31/04:00pm 11.6 3.3 7.7 77 1.9 SW 41 57 22 31 1016.0 1016.0 4.0
31/03:30pm 12.2 3.0 6.5 68 2.7 SSW 44 57 24 31 1015.8 1015.8 4.0
31/03:09pm 12.8 4.4 7.3 69 2.7 SSW 41 59 22 32 1015.5 1015.5 4.0
31/03:00pm 13.1 4.2 6.7 65 3.1 SSW 43 56 23 30 1015.5 1015.5 4.0
31/02:30pm 13.3 5.1 6.6 64 3.2 SW 39 56 21 30 1015.0 1015.0 4.0
31/02:23pm 13.5 5.9 7.7 68 2.9 SW 37 56 20 30 1015.0 1015.0 4.0
31/02:00pm 13.1 4.9 8.2 72 2.4 SW 41 54 22 29 1015.0 1015.0 4.0
31/01:32pm 10.8 3.7 7.9 82 1.4 SW 35 52 19 28 1015.0 1015.0 4.0
31/01:30pm 10.3 3.0 7.2 81 1.5 SW 35 61 19 33 1015.1 1015.1 4.0
31/01:25pm 9.7 0.1 6.4 80 1.5 SW 46 74 25 40 1015.3 1015.3 4.0
31/01:15pm 11.6 3.3 5.9 68 2.7 SW 39 76 21 41 1014.5 1014.5 3.2
31/01:13pm 13.6 6.6 6.9 64 3.3 WSW 33 54 18 29 1014.9 1014.9 3.2
31/01:00pm 15.3 10.1 10.1 71 2.7 WSW 28 39 15 21 1015.0 1015.0 3.2
31/12:30pm 13.7 8.8 9.9 78 2.0 SSW 26 37 14 20 1015.5 1015.5 3.2
31/12:00pm 12.3 4.6 8.8 79 1.8 SW 39 54 21 29 1015.6 1015.6 3.2
31/11:30am 11.7 4.2 9.3 85 1.2 SW 39 48 21 26 1015.7 1015.7 3.2
31/11:10am 11.3 4.4 8.9 85 1.2 SW 35 59 19 32 1015.7 1015.7 3.0
31/11:00am 11.3 3.7 9.2 87 1.1 SW 39 52 21 28 1015.8 1015.8 3.0
31/10:30am 11.8 5.4 9.4 85 1.2 WSW 33 44 18 24 1015.7 1015.7 2.2
31/10:28am 11.9 5.2 9.6 86 1.2 WSW 35 44 19 24 1015.7 1015.7 2.2
31/10:03am 12.1 4.1 8.9 81 1.6 W 41 59 22 32 1015.7 1015.7 0.6
31/10:00am 11.9 3.2 8.6 80 1.6 W 44 59 24 32 1015.7 1015.7 0.4
31/09:51am 12.6 2.6 9.2 80 1.7 W 52 70 28 38 1015.5 1015.5 0.4
31/09:44am 12.8 4.9 9.4 80 1.7 W 41 70 22 38 1015.3 1015.3 0.4
31/09:38am 12.7 7.4 9.7 82 1.5 W 28 48 15 26 1015.6 1015.6 0.4
31/09:30am 12.1 5.8 8.8 80 1.7 W 32 44 17 24 1015.7 1015.7 0.4
31/09:17am 12.5 4.0 8.4 76 2.0 W 43 61 23 33 1015.9 1015.9 0.2
31/09:00am 12.8 4.3 8.5 75 2.1 W 43 57 23 31 1016.0 1016.0 0.8
31/08:48am 14.5 7.0 9.3 71 2.7 WNW 39 57 21 31 1016.0 1016.0 0.8
31/08:30am 13.7 7.6 9.6 76 2.1 WNW 32 48 17 26 1016.2 1016.2 0.8
31/08:00am 11.8 5.8 8.8 82 1.5 WNW 30 39 16 21 1016.3 1016.3 0.8
31/07:30am 12.0 5.8 7.7 75 2.1 NW 30 41 16 22 1016.4 1016.4 0.8
31/07:00am 12.6 6.2 6.9 68 2.7 WNW 30 41 16 22 1016.2 1016.2 0.8
31/06:30am 13.0 6.0 6.8 66 3.0 WNW 33 44 18 24 1016.3 1016.3 0.8
31/06:00am 12.7 6.6 6.5 66 3.0 WNW 28 39 15 21 1016.4 1016.4 0.8
31/05:30am 12.6 6.0 6.0 64 3.1 WNW 30 39 16 21 1016.5 1016.5 0.8
31/05:00am 12.6 6.0 6.2 65 3.0 W 30 41 16 22 1016.7 1016.7 0.8
31/04:30am 12.5 6.7 4.2 57 3.8 WNW 24 33 13 18 1017.1 1017.1 0.8
31/04:00am 12.3 5.0 4.3 58 3.6 WNW 32 41 17 22 1017.2 1017.2 0.8
31/03:30am 12.8 5.9 6.4 65 3.1 WNW 32 41 17 22 1017.4 1017.4 0.8
31/03:00am 12.3 6.8 6.1 66 2.9 WNW 24 30 13 16 1017.8 1017.8 0.8
31/02:30am 11.7 7.0 6.0 68 2.7 WNW 20 28 11 15 1018.2 1018.2 0.8
31/02:00am 11.9 6.0 6.0 67 2.8 WNW 26 35 14 19 1018.4 1018.4 0.8
31/01:30am 11.6 5.5 6.7 72 2.3 WNW 28 35 15 19 1018.7 1018.7 0.8
31/01:00am 11.3 7.0 7.0 75 2.1 W 19 26 10 14 1019.0 1018.9 0.8
31/12:30am 11.1 6.9 7.6 79 1.7 W 19 24 10 13 1019.3 1019.2 0.8
31/12:00am 10.7 6.5 7.4 80 1.6 W 19 26 10 14 1019.5 1019.4 0.8
 
Date/Time
WST
Temp
°C
App
Temp
°C
Dew
Point
Rel
Hum
%
Delta-T
°C
Wind Press
QNH
hPa
Press
MSL
hPa
Rain
since 9 am
mm
Dir
 
Spd
km/h
Gust
km/h
Spd
kts
Gust
kts
30/11:30pm 11.0 6.3 7.9 81 1.5 W 22 30 12 16 1019.8 1019.7 0.8
30/11:00pm 10.2 5.9 7.1 81 1.5 WNW 19 22 10 12 1020.0 1019.9 0.8
30/10:30pm 10.2 6.7 7.3 82 1.4 W 15 20 8 11 1020.3 1020.3 0.8
30/10:00pm 10.6 7.2 7.7 82 1.4 W 15 32 8 17 1020.7 1020.7 0.8
30/09:30pm 10.5 7.6 6.6 77 1.8 WSW 11 15 6 8 1020.8 1020.8 0.2
30/09:00pm 10.4 8.3 6.0 74 2.0 SSW 6 7 3 4 1020.8 1020.8 0.0
30/08:30pm 10.5 8.6 6.5 76 1.9 SSW 6 7 3 4 1021.0 1021.0 0.0
30/08:00pm 10.2 7.2 6.2 76 1.9 S 11 13 6 7 1020.9 1020.9 0.0
30/07:30pm 10.2 6.8 6.0 75 2.0 S 13 17 7 9 1020.7 1020.7 0.0
30/07:00pm 10.7 6.6 6.1 73 2.1 SW 17 26 9 14 1020.6 1020.6 0.0
30/06:30pm 11.3 8.3 5.8 69 2.6 SSW 11 17 6 9 1020.4 1020.4 0.0
30/06:00pm 11.2 8.3 4.9 65 2.9 SW 9 13 5 7 1020.2 1020.2 0.0
30/05:30pm 12.0 8.7 4.7 61 3.3 SW 11 15 6 8 1020.1 1020.0 0.0
30/05:00pm 13.8 10.7 5.4 57 4.0 SW 11 17 6 9 1020.0 1019.9 0.0
30/04:30pm 14.4 10.5 5.5 55 4.2 SW 15 20 8 11 1019.9 1019.8 0.0
30/04:00pm 14.1 9.9 5.7 57 4.0 SW 17 22 9 12 1019.9 1019.8 0.0
30/03:30pm 13.4 10.3 7.2 66 3.0 SSW 13 20 7 11 1019.9 1019.8 0.0
30/03:00pm 13.8 9.4 4.9 55 4.1 SW 17 22 9 12 1019.8 1019.7 0.0
30/02:30pm 14.1 9.2 4.9 54 4.3 SW 20 26 11 14 1019.7 1019.6 0.0

Other Formats:

Comma delimited format used in spreadsheet applications
http://www.bom.gov.au/fwo/IDW60801/IDW60801.94600.axf

JavaScript Object Notation format (JSON) in row-major order
http://www.bom.gov.au/fwo/IDW60801/IDW60801.94600.json